sensor_id;sensor_type;location;lat;lon;timestamp;temperature;humidity
55213;DHT22;41083;52.932;6.674;2024-01-27T00:02:21;4.80;99.90
55213;DHT22;41083;52.932;6.674;2024-01-27T00:04:47;4.80;99.90
55213;DHT22;41083;52.932;6.674;2024-01-27T00:07:14;4.80;99.90
55213;DHT22;41083;52.932;6.674;2024-01-27T00:09:39;4.80;99.90
55213;DHT22;41083;52.932;6.674;2024-01-27T00:12:06;4.90;99.90
55213;DHT22;41083;52.932;6.674;2024-01-27T00:14:32;4.80;99.90
55213;DHT22;41083;52.932;6.674;2024-01-27T00:16:58;4.80;99.90
55213;DHT22;41083;52.932;6.674;2024-01-27T00:19:23;4.80;99.90
55213;DHT22;41083;52.932;6.674;2024-01-27T00:21:49;4.80;99.90
55213;DHT22;41083;52.932;6.674;2024-01-27T00:24:14;4.80;99.90
55213;DHT22;41083;52.932;6.674;2024-01-27T00:26:41;4.80;99.90
55213;DHT22;41083;52.932;6.674;2024-01-27T00:29:07;4.80;99.90
55213;DHT22;41083;52.932;6.674;2024-01-27T00:31:32;4.80;99.90
55213;DHT22;41083;52.932;6.674;2024-01-27T00:33:58;4.70;99.90
55213;DHT22;41083;52.932;6.674;2024-01-27T00:36:23;4.70;99.90
55213;DHT22;41083;52.932;6.674;2024-01-27T00:38:49;4.70;99.90
55213;DHT22;41083;52.932;6.674;2024-01-27T00:41:18;4.70;99.90
55213;DHT22;41083;52.932;6.674;2024-01-27T00:43:44;4.70;99.90
55213;DHT22;41083;52.932;6.674;2024-01-27T00:46:09;4.70;99.90
55213;DHT22;41083;52.932;6.674;2024-01-27T00:48:35;4.70;99.90
55213;DHT22;41083;52.932;6.674;2024-01-27T00:51:00;4.70;99.90
55213;DHT22;41083;52.932;6.674;2024-01-27T00:53:26;4.60;99.90
55213;DHT22;41083;52.932;6.674;2024-01-27T00:55:52;4.60;99.90
55213;DHT22;41083;52.932;6.674;2024-01-27T00:58:17;4.60;99.90
55213;DHT22;41083;52.932;6.674;2024-01-27T01:00:43;4.60;99.90
55213;DHT22;41083;52.932;6.674;2024-01-27T01:03:09;4.60;99.90
55213;DHT22;41083;52.932;6.674;2024-01-27T01:05:34;4.60;99.90
55213;DHT22;41083;52.932;6.674;2024-01-27T01:08:00;4.60;99.90
55213;DHT22;41083;52.932;6.674;2024-01-27T01:10:25;4.60;99.90
55213;DHT22;41083;52.932;6.674;2024-01-27T01:12:51;4.50;99.90
55213;DHT22;41083;52.932;6.674;2024-01-27T01:15:17;4.50;99.90
55213;DHT22;41083;52.932;6.674;2024-01-27T01:17:43;4.50;99.90
55213;DHT22;41083;52.932;6.674;2024-01-27T01:20:09;4.50;99.90
55213;DHT22;41083;52.932;6.674;2024-01-27T01:22:34;4.50;99.90
55213;DHT22;41083;52.932;6.674;2024-01-27T01:25:00;4.50;99.90
55213;DHT22;41083;52.932;6.674;2024-01-27T01:27:26;4.50;99.90
55213;DHT22;41083;52.932;6.674;2024-01-27T01:29:51;4.50;99.90
55213;DHT22;41083;52.932;6.674;2024-01-27T01:32:17;4.50;99.90
55213;DHT22;41083;52.932;6.674;2024-01-27T01:34:43;4.50;99.90
55213;DHT22;41083;52.932;6.674;2024-01-27T01:37:08;4.50;99.90
55213;DHT22;41083;52.932;6.674;2024-01-27T01:39:34;4.50;99.90
55213;DHT22;41083;52.932;6.674;2024-01-27T01:41:59;4.50;99.90
55213;DHT22;41083;52.932;6.674;2024-01-27T01:44:29;4.50;99.90
55213;DHT22;41083;52.932;6.674;2024-01-27T01:46:55;4.50;99.90
55213;DHT22;41083;52.932;6.674;2024-01-27T01:49:21;4.40;99.90
55213;DHT22;41083;52.932;6.674;2024-01-27T01:51:48;4.40;99.90
55213;DHT22;41083;52.932;6.674;2024-01-27T01:54:13;4.50;99.90
55213;DHT22;41083;52.932;6.674;2024-01-27T01:56:39;4.50;99.90
55213;DHT22;41083;52.932;6.674;2024-01-27T01:59:05;4.40;99.90
55213;DHT22;41083;52.932;6.674;2024-01-27T02:01:31;4.40;99.90
55213;DHT22;41083;52.932;6.674;2024-01-27T02:03:57;4.40;99.90
55213;DHT22;41083;52.932;6.674;2024-01-27T02:06:23;4.40;99.90
55213;DHT22;41083;52.932;6.674;2024-01-27T02:08:49;4.40;99.90
55213;DHT22;41083;52.932;6.674;2024-01-27T02:11:15;4.40;99.90
55213;DHT22;41083;52.932;6.674;2024-01-27T02:13:41;4.40;99.90
55213;DHT22;41083;52.932;6.674;2024-01-27T02:16:07;4.40;99.90
55213;DHT22;41083;52.932;6.674;2024-01-27T02:18:33;4.40;99.90
55213;DHT22;41083;52.932;6.674;2024-01-27T02:20:59;4.40;99.90
55213;DHT22;41083;52.932;6.674;2024-01-27T02:23:24;4.40;99.90
55213;DHT22;41083;52.932;6.674;2024-01-27T02:25:50;4.40;99.90
55213;DHT22;41083;52.932;6.674;2024-01-27T02:28:16;4.40;99.90
55213;DHT22;41083;52.932;6.674;2024-01-27T02:30:43;4.40;99.90
55213;DHT22;41083;52.932;6.674;2024-01-27T02:33:08;4.30;99.90
55213;DHT22;41083;52.932;6.674;2024-01-27T02:35:34;4.40;99.90
55213;DHT22;41083;52.932;6.674;2024-01-27T02:38:00;4.30;99.90
55213;DHT22;41083;52.932;6.674;2024-01-27T02:40:25;4.30;99.90
55213;DHT22;41083;52.932;6.674;2024-01-27T02:42:51;4.40;99.90
55213;DHT22;41083;52.932;6.674;2024-01-27T02:45:17;4.30;99.90
55213;DHT22;41083;52.932;6.674;2024-01-27T02:47:43;4.40;99.90
55213;DHT22;41083;52.932;6.674;2024-01-27T02:50:09;4.40;99.90
55213;DHT22;41083;52.932;6.674;2024-01-27T02:52:34;4.40;99.90
55213;DHT22;41083;52.932;6.674;2024-01-27T02:55:00;4.40;99.90
55213;DHT22;41083;52.932;6.674;2024-01-27T02:57:26;4.40;99.90
55213;DHT22;41083;52.932;6.674;2024-01-27T02:59:52;4.40;99.90
55213;DHT22;41083;52.932;6.674;2024-01-27T03:02:18;4.30;99.90
55213;DHT22;41083;52.932;6.674;2024-01-27T03:04:43;4.30;99.90
55213;DHT22;41083;52.932;6.674;2024-01-27T03:07:09;4.30;99.90
55213;DHT22;41083;52.932;6.674;2024-01-27T03:09:35;4.30;99.90
55213;DHT22;41083;52.932;6.674;2024-01-27T03:12:01;4.30;99.90
55213;DHT22;41083;52.932;6.674;2024-01-27T03:14:27;4.30;99.90
55213;DHT22;41083;52.932;6.674;2024-01-27T03:16:53;4.30;99.90
55213;DHT22;41083;52.932;6.674;2024-01-27T03:19:19;4.30;99.90
55213;DHT22;41083;52.932;6.674;2024-01-27T03:21:45;4.20;99.90
55213;DHT22;41083;52.932;6.674;2024-01-27T03:24:11;4.20;99.90
55213;DHT22;41083;52.932;6.674;2024-01-27T03:26:36;4.30;99.90
55213;DHT22;41083;52.932;6.674;2024-01-27T03:29:02;4.20;99.90
55213;DHT22;41083;52.932;6.674;2024-01-27T03:31:34;4.20;99.90
55213;DHT22;41083;52.932;6.674;2024-01-27T03:34:01;4.20;99.90
55213;DHT22;41083;52.932;6.674;2024-01-27T03:36:26;4.20;99.90
55213;DHT22;41083;52.932;6.674;2024-01-27T03:38:52;4.20;99.90
55213;DHT22;41083;52.932;6.674;2024-01-27T03:41:18;4.20;99.90
55213;DHT22;41083;52.932;6.674;2024-01-27T03:43:44;4.20;99.90
55213;DHT22;41083;52.932;6.674;2024-01-27T03:46:09;4.10;99.90
55213;DHT22;41083;52.932;6.674;2024-01-27T03:48:35;4.10;99.90
55213;DHT22;41083;52.932;6.674;2024-01-27T03:51:01;4.10;99.90
55213;DHT22;41083;52.932;6.674;2024-01-27T03:53:27;4.10;99.90
55213;DHT22;41083;52.932;6.674;2024-01-27T03:55:53;4.10;99.90
55213;DHT22;41083;52.932;6.674;2024-01-27T03:58:19;4.10;99.90
55213;DHT22;41083;52.932;6.674;2024-01-27T04:00:44;4.10;99.90
55213;DHT22;41083;52.932;6.674;2024-01-27T04:03:10;4.10;99.90
55213;DHT22;41083;52.932;6.674;2024-01-27T04:05:36;4.10;99.90
55213;DHT22;41083;52.932;6.674;2024-01-27T04:08:02;4.10;99.90
55213;DHT22;41083;52.932;6.674;2024-01-27T04:10:28;4.10;99.90
55213;DHT22;41083;52.932;6.674;2024-01-27T04:12:53;4.10;99.90
55213;DHT22;41083;52.932;6.674;2024-01-27T04:15:19;4.10;99.90
55213;DHT22;41083;52.932;6.674;2024-01-27T04:17:45;4.10;99.90
55213;DHT22;41083;52.932;6.674;2024-01-27T04:20:11;4.00;99.90
55213;DHT22;41083;52.932;6.674;2024-01-27T04:22:36;4.00;99.90
55213;DHT22;41083;52.932;6.674;2024-01-27T04:25:02;4.00;99.90
55213;DHT22;41083;52.932;6.674;2024-01-27T04:27:29;4.00;99.90
55213;DHT22;41083;52.932;6.674;2024-01-27T04:29:55;4.00;99.90
55213;DHT22;41083;52.932;6.674;2024-01-27T04:32:22;4.00;99.90
55213;DHT22;41083;52.932;6.674;2024-01-27T04:34:49;4.00;99.90
55213;DHT22;41083;52.932;6.674;2024-01-27T04:37:14;4.00;99.90
55213;DHT22;41083;52.932;6.674;2024-01-27T04:39:40;4.00;99.90
55213;DHT22;41083;52.932;6.674;2024-01-27T04:42:06;4.00;99.90
55213;DHT22;41083;52.932;6.674;2024-01-27T04:44:32;4.00;99.90
55213;DHT22;41083;52.932;6.674;2024-01-27T04:46:58;4.00;99.90
55213;DHT22;41083;52.932;6.674;2024-01-27T04:49:24;4.00;99.90
55213;DHT22;41083;52.932;6.674;2024-01-27T04:51:49;4.00;99.90
55213;DHT22;41083;52.932;6.674;2024-01-27T04:54:15;4.00;99.90
55213;DHT22;41083;52.932;6.674;2024-01-27T04:56:41;4.00;99.90
55213;DHT22;41083;52.932;6.674;2024-01-27T04:59:07;4.00;99.90
55213;DHT22;41083;52.932;6.674;2024-01-27T05:01:32;4.00;99.90
55213;DHT22;41083;52.932;6.674;2024-01-27T05:03:58;4.00;99.90
55213;DHT22;41083;52.932;6.674;2024-01-27T05:06:24;4.00;99.90
55213;DHT22;41083;52.932;6.674;2024-01-27T05:08:50;3.90;99.90
55213;DHT22;41083;52.932;6.674;2024-01-27T05:11:24;4.00;99.90
55213;DHT22;41083;52.932;6.674;2024-01-27T05:13:50;4.00;99.90
55213;DHT22;41083;52.932;6.674;2024-01-27T05:16:16;4.00;99.90
55213;DHT22;41083;52.932;6.674;2024-01-27T05:18:41;4.00;99.90
55213;DHT22;41083;52.932;6.674;2024-01-27T05:21:07;4.00;99.90
55213;DHT22;41083;52.932;6.674;2024-01-27T05:23:33;3.90;99.90
55213;DHT22;41083;52.932;6.674;2024-01-27T05:25:58;4.00;99.90
55213;DHT22;41083;52.932;6.674;2024-01-27T05:28:24;3.90;99.90
55213;DHT22;41083;52.932;6.674;2024-01-27T05:30:49;3.90;99.90
55213;DHT22;41083;52.932;6.674;2024-01-27T05:33:15;3.90;99.90
55213;DHT22;41083;52.932;6.674;2024-01-27T05:35:41;3.80;99.90
55213;DHT22;41083;52.932;6.674;2024-01-27T05:38:07;3.90;99.90
55213;DHT22;41083;52.932;6.674;2024-01-27T05:40:33;3.90;99.90
55213;DHT22;41083;52.932;6.674;2024-01-27T05:42:58;3.80;99.90
55213;DHT22;41083;52.932;6.674;2024-01-27T05:45:24;3.90;99.90
55213;DHT22;41083;52.932;6.674;2024-01-27T05:47:49;3.90;99.90
55213;DHT22;41083;52.932;6.674;2024-01-27T05:50:15;3.80;99.90
55213;DHT22;41083;52.932;6.674;2024-01-27T05:52:41;3.80;99.90
55213;DHT22;41083;52.932;6.674;2024-01-27T05:55:07;3.80;99.90
55213;DHT22;41083;52.932;6.674;2024-01-27T05:57:33;3.80;99.90
55213;DHT22;41083;52.932;6.674;2024-01-27T05:59:59;3.80;99.90
55213;DHT22;41083;52.932;6.674;2024-01-27T06:02:25;3.80;99.90
55213;DHT22;41083;52.932;6.674;2024-01-27T06:04:51;3.80;99.90
55213;DHT22;41083;52.932;6.674;2024-01-27T06:07:16;3.80;99.90
55213;DHT22;41083;52.932;6.674;2024-01-27T06:09:42;3.70;99.90
55213;DHT22;41083;52.932;6.674;2024-01-27T06:12:08;3.70;99.90
55213;DHT22;41083;52.932;6.674;2024-01-27T06:14:33;3.70;99.90
55213;DHT22;41083;52.932;6.674;2024-01-27T06:16:59;3.70;99.90
55213;DHT22;41083;52.932;6.674;2024-01-27T06:19:25;3.70;99.90
55213;DHT22;41083;52.932;6.674;2024-01-27T06:21:51;3.70;99.90
55213;DHT22;41083;52.932;6.674;2024-01-27T06:24:16;3.70;99.90
55213;DHT22;41083;52.932;6.674;2024-01-27T06:26:42;3.70;99.90
55213;DHT22;41083;52.932;6.674;2024-01-27T06:29:07;3.80;99.90
55213;DHT22;41083;52.932;6.674;2024-01-27T06:31:33;3.80;99.90
55213;DHT22;41083;52.932;6.674;2024-01-27T06:33:59;3.70;99.90
55213;DHT22;41083;52.932;6.674;2024-01-27T06:36:24;3.80;99.90
55213;DHT22;41083;52.932;6.674;2024-01-27T06:38:52;3.70;99.90
55213;DHT22;41083;52.932;6.674;2024-01-27T06:41:18;3.70;99.90
55213;DHT22;41083;52.932;6.674;2024-01-27T06:43:43;3.70;99.90
55213;DHT22;41083;52.932;6.674;2024-01-27T06:46:09;3.70;99.90
55213;DHT22;41083;52.932;6.674;2024-01-27T06:48:35;3.70;99.90
55213;DHT22;41083;52.932;6.674;2024-01-27T06:51:01;3.70;99.90
55213;DHT22;41083;52.932;6.674;2024-01-27T06:53:27;3.70;99.90
55213;DHT22;41083;52.932;6.674;2024-01-27T06:55:53;3.70;99.90
55213;DHT22;41083;52.932;6.674;2024-01-27T06:58:18;3.70;99.90
55213;DHT22;41083;52.932;6.674;2024-01-27T07:00:44;3.70;99.90
55213;DHT22;41083;52.932;6.674;2024-01-27T07:03:10;3.70;99.90
55213;DHT22;41083;52.932;6.674;2024-01-27T07:05:36;3.70;99.90
55213;DHT22;41083;52.932;6.674;2024-01-27T07:08:09;3.70;99.90
55213;DHT22;41083;52.932;6.674;2024-01-27T07:10:35;3.70;99.90
55213;DHT22;41083;52.932;6.674;2024-01-27T07:13:01;3.70;99.90
55213;DHT22;41083;52.932;6.674;2024-01-27T07:15:26;3.70;99.90
55213;DHT22;41083;52.932;6.674;2024-01-27T07:17:53;3.70;99.90
55213;DHT22;41083;52.932;6.674;2024-01-27T07:20:19;3.70;99.90
55213;DHT22;41083;52.932;6.674;2024-01-27T07:22:47;3.70;99.90
55213;DHT22;41083;52.932;6.674;2024-01-27T07:25:13;3.70;99.90
55213;DHT22;41083;52.932;6.674;2024-01-27T07:27:39;3.70;99.90
55213;DHT22;41083;52.932;6.674;2024-01-27T07:30:05;3.70;99.90
55213;DHT22;41083;52.932;6.674;2024-01-27T07:32:32;3.70;99.90
55213;DHT22;41083;52.932;6.674;2024-01-27T07:34:57;3.70;99.90
55213;DHT22;41083;52.932;6.674;2024-01-27T07:37:23;3.70;99.90
55213;DHT22;41083;52.932;6.674;2024-01-27T07:39:48;3.70;99.90
55213;DHT22;41083;52.932;6.674;2024-01-27T07:42:15;3.70;99.90
55213;DHT22;41083;52.932;6.674;2024-01-27T07:44:41;3.70;99.90
55213;DHT22;41083;52.932;6.674;2024-01-27T07:47:07;3.70;99.90
55213;DHT22;41083;52.932;6.674;2024-01-27T07:49:34;3.60;99.90
55213;DHT22;41083;52.932;6.674;2024-01-27T07:52:00;3.70;99.90
55213;DHT22;41083;52.932;6.674;2024-01-27T07:54:26;3.70;99.90
55213;DHT22;41083;52.932;6.674;2024-01-27T07:56:51;3.70;99.90
55213;DHT22;41083;52.932;6.674;2024-01-27T07:59:17;3.70;99.90
55213;DHT22;41083;52.932;6.674;2024-01-27T08:01:44;3.70;99.90
55213;DHT22;41083;52.932;6.674;2024-01-27T08:04:09;3.70;99.90
55213;DHT22;41083;52.932;6.674;2024-01-27T08:06:49;3.70;99.90
55213;DHT22;41083;52.932;6.674;2024-01-27T08:09:16;3.70;99.90
55213;DHT22;41083;52.932;6.674;2024-01-27T08:11:42;3.70;99.90
55213;DHT22;41083;52.932;6.674;2024-01-27T08:14:08;3.70;99.90
55213;DHT22;41083;52.932;6.674;2024-01-27T08:16:33;3.80;99.90
55213;DHT22;41083;52.932;6.674;2024-01-27T08:18:59;3.70;99.90
55213;DHT22;41083;52.932;6.674;2024-01-27T08:21:24;3.80;99.90
55213;DHT22;41083;52.932;6.674;2024-01-27T08:23:50;3.80;99.90
55213;DHT22;41083;52.932;6.674;2024-01-27T08:26:16;3.80;99.90
55213;DHT22;41083;52.932;6.674;2024-01-27T08:28:41;3.80;99.90
55213;DHT22;41083;52.932;6.674;2024-01-27T08:31:08;3.80;99.90
55213;DHT22;41083;52.932;6.674;2024-01-27T08:33:33;3.80;99.90
55213;DHT22;41083;52.932;6.674;2024-01-27T08:35:59;3.80;99.90
55213;DHT22;41083;52.932;6.674;2024-01-27T08:38:25;3.90;99.90
55213;DHT22;41083;52.932;6.674;2024-01-27T08:40:50;3.90;99.90
55213;DHT22;41083;52.932;6.674;2024-01-27T08:43:16;3.90;99.90
55213;DHT22;41083;52.932;6.674;2024-01-27T08:45:42;3.90;99.90
55213;DHT22;41083;52.932;6.674;2024-01-27T08:48:07;3.90;99.90
55213;DHT22;41083;52.932;6.674;2024-01-27T08:50:35;4.00;99.90
55213;DHT22;41083;52.932;6.674;2024-01-27T08:53:01;4.00;99.90
55213;DHT22;41083;52.932;6.674;2024-01-27T08:55:27;4.00;99.90
55213;DHT22;41083;52.932;6.674;2024-01-27T08:57:53;4.10;99.90
55213;DHT22;41083;52.932;6.674;2024-01-27T09:00:18;4.10;99.90
55213;DHT22;41083;52.932;6.674;2024-01-27T09:02:44;4.20;99.90
55213;DHT22;41083;52.932;6.674;2024-01-27T09:05:10;4.20;99.90
55213;DHT22;41083;52.932;6.674;2024-01-27T09:07:36;4.30;99.90
55213;DHT22;41083;52.932;6.674;2024-01-27T09:10:02;4.20;99.90
55213;DHT22;41083;52.932;6.674;2024-01-27T09:12:27;4.30;99.90
55213;DHT22;41083;52.932;6.674;2024-01-27T09:14:53;4.30;99.90
55213;DHT22;41083;52.932;6.674;2024-01-27T09:17:22;4.40;99.90
55213;DHT22;41083;52.932;6.674;2024-01-27T09:19:48;4.40;99.90
55213;DHT22;41083;52.932;6.674;2024-01-27T09:22:13;4.40;99.90
55213;DHT22;41083;52.932;6.674;2024-01-27T09:24:39;4.50;99.90
55213;DHT22;41083;52.932;6.674;2024-01-27T09:27:05;4.50;99.90
55213;DHT22;41083;52.932;6.674;2024-01-27T09:29:31;4.60;99.90
55213;DHT22;41083;52.932;6.674;2024-01-27T09:31:56;4.60;99.90
55213;DHT22;41083;52.932;6.674;2024-01-27T09:34:22;4.60;99.90
55213;DHT22;41083;52.932;6.674;2024-01-27T09:36:48;4.70;99.90
55213;DHT22;41083;52.932;6.674;2024-01-27T09:39:13;4.70;99.90
55213;DHT22;41083;52.932;6.674;2024-01-27T09:41:39;4.80;99.90
55213;DHT22;41083;52.932;6.674;2024-01-27T09:44:05;4.80;99.90
55213;DHT22;41083;52.932;6.674;2024-01-27T09:46:32;4.90;99.90
55213;DHT22;41083;52.932;6.674;2024-01-27T09:48:58;4.90;99.90
55213;DHT22;41083;52.932;6.674;2024-01-27T09:51:27;5.00;99.90
55213;DHT22;41083;52.932;6.674;2024-01-27T09:53:54;5.00;99.90
55213;DHT22;41083;52.932;6.674;2024-01-27T09:56:20;5.00;99.90
55213;DHT22;41083;52.932;6.674;2024-01-27T09:58:47;5.10;99.90
55213;DHT22;41083;52.932;6.674;2024-01-27T10:01:20;5.10;99.90
55213;DHT22;41083;52.932;6.674;2024-01-27T10:03:46;5.20;99.90
55213;DHT22;41083;52.932;6.674;2024-01-27T10:06:12;5.20;99.90
55213;DHT22;41083;52.932;6.674;2024-01-27T10:08:39;5.20;99.90
55213;DHT22;41083;52.932;6.674;2024-01-27T10:11:09;5.20;99.90
55213;DHT22;41083;52.932;6.674;2024-01-27T10:13:35;5.30;99.90
55213;DHT22;41083;52.932;6.674;2024-01-27T10:16:03;5.30;99.90
55213;DHT22;41083;52.932;6.674;2024-01-27T10:18:30;5.40;99.90
55213;DHT22;41083;52.932;6.674;2024-01-27T10:20:56;5.40;99.90
55213;DHT22;41083;52.932;6.674;2024-01-27T10:23:22;5.50;99.90
55213;DHT22;41083;52.932;6.674;2024-01-27T10:25:48;5.50;99.90
55213;DHT22;41083;52.932;6.674;2024-01-27T10:28:14;5.60;99.90
55213;DHT22;41083;52.932;6.674;2024-01-27T10:30:40;5.60;99.90
55213;DHT22;41083;52.932;6.674;2024-01-27T10:33:08;5.70;99.90
55213;DHT22;41083;52.932;6.674;2024-01-27T10:35:35;5.70;99.90
55213;DHT22;41083;52.932;6.674;2024-01-27T10:38:01;5.80;99.90
55213;DHT22;41083;52.932;6.674;2024-01-27T10:40:28;5.80;99.90
55213;DHT22;41083;52.932;6.674;2024-01-27T10:43:05;5.80;99.90
55213;DHT22;41083;52.932;6.674;2024-01-27T10:45:39;5.90;99.90
55213;DHT22;41083;52.932;6.674;2024-01-27T10:48:06;6.00;99.90
55213;DHT22;41083;52.932;6.674;2024-01-27T10:50:36;6.00;99.90
55213;DHT22;41083;52.932;6.674;2024-01-27T10:53:09;6.00;99.90
55213;DHT22;41083;52.932;6.674;2024-01-27T10:55:42;6.10;99.90
55213;DHT22;41083;52.932;6.674;2024-01-27T10:58:10;6.10;99.90
55213;DHT22;41083;52.932;6.674;2024-01-27T11:00:38;6.20;99.90
55213;DHT22;41083;52.932;6.674;2024-01-27T11:03:06;6.20;99.90
55213;DHT22;41083;52.932;6.674;2024-01-27T11:05:35;6.20;99.90
55213;DHT22;41083;52.932;6.674;2024-01-27T11:08:04;6.30;99.90
55213;DHT22;41083;52.932;6.674;2024-01-27T11:10:31;6.30;99.90
55213;DHT22;41083;52.932;6.674;2024-01-27T11:13:03;6.30;99.90
55213;DHT22;41083;52.932;6.674;2024-01-27T11:15:29;6.40;99.90
55213;DHT22;41083;52.932;6.674;2024-01-27T11:17:57;6.40;99.90
55213;DHT22;41083;52.932;6.674;2024-01-27T11:20:25;6.40;99.90
55213;DHT22;41083;52.932;6.674;2024-01-27T11:22:51;6.50;99.90
55213;DHT22;41083;52.932;6.674;2024-01-27T11:25:18;6.50;99.90
55213;DHT22;41083;52.932;6.674;2024-01-27T11:27:45;6.50;99.90
55213;DHT22;41083;52.932;6.674;2024-01-27T11:30:31;6.60;99.90
55213;DHT22;41083;52.932;6.674;2024-01-27T11:33:01;6.60;99.90
55213;DHT22;41083;52.932;6.674;2024-01-27T11:35:27;6.70;99.90
55213;DHT22;41083;52.932;6.674;2024-01-27T11:37:54;6.70;99.90
55213;DHT22;41083;52.932;6.674;2024-01-27T11:40:20;6.70;99.90
55213;DHT22;41083;52.932;6.674;2024-01-27T11:43:15;6.80;99.90
55213;DHT22;41083;52.932;6.674;2024-01-27T11:45:41;6.80;99.90
55213;DHT22;41083;52.932;6.674;2024-01-27T11:48:07;6.80;99.90
55213;DHT22;41083;52.932;6.674;2024-01-27T11:50:32;6.90;99.90
55213;DHT22;41083;52.932;6.674;2024-01-27T11:52:58;6.90;99.90
55213;DHT22;41083;52.932;6.674;2024-01-27T11:55:24;6.90;99.90
55213;DHT22;41083;52.932;6.674;2024-01-27T11:57:49;6.90;99.90
55213;DHT22;41083;52.932;6.674;2024-01-27T12:00:15;7.00;99.90
55213;DHT22;41083;52.932;6.674;2024-01-27T12:02:41;7.00;99.90
55213;DHT22;41083;52.932;6.674;2024-01-27T12:05:08;7.00;99.90
55213;DHT22;41083;52.932;6.674;2024-01-27T12:07:34;7.00;99.90
55213;DHT22;41083;52.932;6.674;2024-01-27T12:09:59;7.10;99.90
55213;DHT22;41083;52.932;6.674;2024-01-27T12:12:25;7.20;99.90
55213;DHT22;41083;52.932;6.674;2024-01-27T12:14:51;7.10;99.90
55213;DHT22;41083;52.932;6.674;2024-01-27T12:17:18;7.10;99.90
55213;DHT22;41083;52.932;6.674;2024-01-27T12:19:51;7.20;99.90
55213;DHT22;41083;52.932;6.674;2024-01-27T12:22:25;7.20;99.90
55213;DHT22;41083;52.932;6.674;2024-01-27T12:24:52;7.20;99.90
55213;DHT22;41083;52.932;6.674;2024-01-27T12:27:18;7.20;99.90
55213;DHT22;41083;52.932;6.674;2024-01-27T12:29:47;7.20;99.90
55213;DHT22;41083;52.932;6.674;2024-01-27T12:32:13;7.30;99.90
55213;DHT22;41083;52.932;6.674;2024-01-27T12:34:40;7.30;99.90
55213;DHT22;41083;52.932;6.674;2024-01-27T12:37:08;7.30;99.90
55213;DHT22;41083;52.932;6.674;2024-01-27T12:39:34;7.30;99.90
55213;DHT22;41083;52.932;6.674;2024-01-27T12:41:59;7.30;99.90
55213;DHT22;41083;52.932;6.674;2024-01-27T12:44:25;7.30;99.90
55213;DHT22;41083;52.932;6.674;2024-01-27T12:46:51;7.30;99.90
55213;DHT22;41083;52.932;6.674;2024-01-27T12:49:17;7.30;99.90
55213;DHT22;41083;52.932;6.674;2024-01-27T12:51:42;7.30;99.90
55213;DHT22;41083;52.932;6.674;2024-01-27T12:54:08;7.30;99.90
55213;DHT22;41083;52.932;6.674;2024-01-27T12:56:34;7.40;99.90
55213;DHT22;41083;52.932;6.674;2024-01-27T12:59:00;7.40;99.90
55213;DHT22;41083;52.932;6.674;2024-01-27T13:01:27;7.40;99.90
55213;DHT22;41083;52.932;6.674;2024-01-27T13:03:52;7.40;99.90
55213;DHT22;41083;52.932;6.674;2024-01-27T13:06:18;7.40;99.90
55213;DHT22;41083;52.932;6.674;2024-01-27T13:08:44;7.40;99.90
55213;DHT22;41083;52.932;6.674;2024-01-27T13:11:10;7.40;99.90
55213;DHT22;41083;52.932;6.674;2024-01-27T13:13:40;7.50;99.90
55213;DHT22;41083;52.932;6.674;2024-01-27T13:16:06;7.50;99.90
55213;DHT22;41083;52.932;6.674;2024-01-27T13:18:32;7.50;99.90
55213;DHT22;41083;52.932;6.674;2024-01-27T13:20:58;7.50;99.90
55213;DHT22;41083;52.932;6.674;2024-01-27T13:23:24;7.50;99.90
55213;DHT22;41083;52.932;6.674;2024-01-27T13:25:49;7.50;99.90
55213;DHT22;41083;52.932;6.674;2024-01-27T13:28:15;7.50;99.90
55213;DHT22;41083;52.932;6.674;2024-01-27T13:30:41;7.50;99.90
55213;DHT22;41083;52.932;6.674;2024-01-27T13:33:07;7.50;99.90
55213;DHT22;41083;52.932;6.674;2024-01-27T13:35:33;7.50;99.90
55213;DHT22;41083;52.932;6.674;2024-01-27T13:37:59;7.50;99.90
55213;DHT22;41083;52.932;6.674;2024-01-27T13:40:24;7.50;99.90
55213;DHT22;41083;52.932;6.674;2024-01-27T13:42:50;7.50;99.90
55213;DHT22;41083;52.932;6.674;2024-01-27T13:45:15;7.60;99.90
55213;DHT22;41083;52.932;6.674;2024-01-27T13:47:41;7.60;99.90
55213;DHT22;41083;52.932;6.674;2024-01-27T13:50:08;7.60;99.90
55213;DHT22;41083;52.932;6.674;2024-01-27T13:52:33;7.60;99.90
55213;DHT22;41083;52.932;6.674;2024-01-27T13:54:59;7.60;99.90
55213;DHT22;41083;52.932;6.674;2024-01-27T13:57:25;7.60;99.90
55213;DHT22;41083;52.932;6.674;2024-01-27T13:59:51;7.60;99.90
55213;DHT22;41083;52.932;6.674;2024-01-27T14:02:16;7.60;99.90
55213;DHT22;41083;52.932;6.674;2024-01-27T14:04:42;7.60;99.90
55213;DHT22;41083;52.932;6.674;2024-01-27T14:07:08;7.60;99.90
55213;DHT22;41083;52.932;6.674;2024-01-27T14:09:35;7.60;99.90
55213;DHT22;41083;52.932;6.674;2024-01-27T14:12:01;7.60;99.90
55213;DHT22;41083;52.932;6.674;2024-01-27T14:14:27;7.60;99.90
55213;DHT22;41083;52.932;6.674;2024-01-27T14:16:52;7.60;99.90
55213;DHT22;41083;52.932;6.674;2024-01-27T14:19:19;7.60;99.90
55213;DHT22;41083;52.932;6.674;2024-01-27T14:21:45;7.50;99.90
55213;DHT22;41083;52.932;6.674;2024-01-27T14:24:11;7.50;99.90
55213;DHT22;41083;52.932;6.674;2024-01-27T14:26:37;7.50;99.90
55213;DHT22;41083;52.932;6.674;2024-01-27T14:29:03;7.50;99.90
55213;DHT22;41083;52.932;6.674;2024-01-27T14:31:29;7.50;99.90
55213;DHT22;41083;52.932;6.674;2024-01-27T14:33:56;7.50;99.90
55213;DHT22;41083;52.932;6.674;2024-01-27T14:36:22;7.50;99.90
55213;DHT22;41083;52.932;6.674;2024-01-27T14:38:49;7.40;99.90
55213;DHT22;41083;52.932;6.674;2024-01-27T14:41:15;7.40;99.90
55213;DHT22;41083;52.932;6.674;2024-01-27T14:43:40;7.40;99.90
55213;DHT22;41083;52.932;6.674;2024-01-27T14:46:06;7.40;99.90
55213;DHT22;41083;52.932;6.674;2024-01-27T14:48:32;7.40;99.90
55213;DHT22;41083;52.932;6.674;2024-01-27T14:50:58;7.40;99.90
55213;DHT22;41083;52.932;6.674;2024-01-27T14:53:30;7.30;99.90
55213;DHT22;41083;52.932;6.674;2024-01-27T14:55:56;7.30;99.90
55213;DHT22;41083;52.932;6.674;2024-01-27T14:58:22;7.30;99.90
55213;DHT22;41083;52.932;6.674;2024-01-27T15:00:48;7.30;99.90
55213;DHT22;41083;52.932;6.674;2024-01-27T15:03:21;7.30;99.90
55213;DHT22;41083;52.932;6.674;2024-01-27T15:05:49;7.20;99.90
55213;DHT22;41083;52.932;6.674;2024-01-27T15:08:16;7.20;99.90
55213;DHT22;41083;52.932;6.674;2024-01-27T15:10:45;7.20;99.90
55213;DHT22;41083;52.932;6.674;2024-01-27T15:13:11;7.20;99.90
55213;DHT22;41083;52.932;6.674;2024-01-27T15:15:37;7.20;99.90
55213;DHT22;41083;52.932;6.674;2024-01-27T15:18:04;7.20;99.90
55213;DHT22;41083;52.932;6.674;2024-01-27T15:20:31;7.10;99.90
55213;DHT22;41083;52.932;6.674;2024-01-27T15:22:56;7.10;99.90
55213;DHT22;41083;52.932;6.674;2024-01-27T15:25:22;7.10;99.90
55213;DHT22;41083;52.932;6.674;2024-01-27T15:27:48;7.00;99.90
55213;DHT22;41083;52.932;6.674;2024-01-27T15:30:16;7.10;99.90
55213;DHT22;41083;52.932;6.674;2024-01-27T15:32:41;7.00;99.90
55213;DHT22;41083;52.932;6.674;2024-01-27T15:35:07;7.00;99.90
55213;DHT22;41083;52.932;6.674;2024-01-27T15:37:33;7.00;99.90
55213;DHT22;41083;52.932;6.674;2024-01-27T15:39:59;6.90;99.90